createdAt,value
2019-01-26T00:01:10.063Z,99738.11
2019-01-26T00:03:38.327Z,99749.97
2019-01-26T00:06:06.604Z,99743.20
2019-01-26T00:08:34.892Z,99732.02
2019-01-26T00:11:04.125Z,99731.75
2019-01-26T00:13:32.418Z,99727.89
2019-01-26T00:16:01.567Z,99737.59
2019-01-26T00:18:31.008Z,99729.82
2019-01-26T00:20:59.343Z,99717.78
2019-01-26T00:23:27.627Z,99727.48
2019-01-26T00:25:55.908Z,99718.36
2019-01-26T00:28:24.151Z,99710.28
2019-01-26T00:30:52.561Z,99703.98
2019-01-26T00:33:20.846Z,99694.95
2019-01-26T00:35:49.106Z,99694.09
2019-01-26T00:38:17.350Z,99695.84
2019-01-26T00:40:45.639Z,99705.05
2019-01-26T00:43:13.947Z,99693.78
2019-01-26T00:45:42.192Z,99692.59
2019-01-26T00:48:10.449Z,99691.80
2019-01-26T00:50:39.019Z,99674.44
2019-01-26T00:53:07.296Z,99664.81
2019-01-26T00:55:35.545Z,99656.59
2019-01-26T00:58:04.206Z,99665.27
2019-01-26T01:00:32.483Z,99668.86
2019-01-26T01:03:00.834Z,99671.92
2019-01-26T01:05:29.121Z,99664.63
2019-01-26T01:07:57.365Z,99654.28
2019-01-26T01:10:25.611Z,99650.01
2019-01-26T01:12:53.891Z,99647.08
2019-01-26T01:15:22.705Z,99647.19
2019-01-26T01:17:50.987Z,99639.86
2019-01-26T01:20:19.228Z,99649.11
2019-01-26T01:22:47.533Z,99635.17
2019-01-26T01:25:15.812Z,99643.89
2019-01-26T01:27:44.087Z,99637.73
2019-01-26T01:30:23.671Z,99647.80
2019-01-26T01:32:51.904Z,99647.36
2019-01-26T01:35:20.143Z,99656.94
2019-01-26T01:37:48.444Z,99666.92
2019-01-26T01:40:17.313Z,99663.50
2019-01-26T01:42:45.561Z,99653.02
2019-01-26T01:45:21.889Z,99649.93
2019-01-26T01:47:50.166Z,99649.36
2019-01-26T01:50:18.511Z,99651.52
2019-01-26T01:52:46.755Z,99652.73
2019-01-26T01:55:14.989Z,99645.36
2019-01-26T01:57:43.294Z,99645.84
2019-01-26T02:00:19.908Z,99631.59
2019-01-26T02:02:48.207Z,99626.29
2019-01-26T02:05:16.558Z,99630.13
2019-01-26T02:07:44.810Z,99637.53
2019-01-26T02:10:15.601Z,99644.47
2019-01-26T02:12:43.886Z,99624.50
2019-01-26T02:15:13.276Z,99644.42
2019-01-26T02:17:41.622Z,99631.39
2019-01-26T02:20:18.133Z,99630.56
2019-01-26T02:22:46.408Z,99628.08
2019-01-26T02:25:14.678Z,99626.38
2019-01-26T02:27:42.953Z,99621.61
2019-01-26T02:30:14.200Z,99630.41
2019-01-26T02:32:42.568Z,99628.28
2019-01-26T02:35:11.036Z,99631.02
2019-01-26T02:37:39.316Z,99627.22
2019-01-26T02:40:10.297Z,99622.54
2019-01-26T02:42:38.576Z,99614.71
2019-01-26T02:45:08.259Z,99625.75
2019-01-26T02:47:36.546Z,99610.99
2019-01-26T02:50:07.826Z,99610.70
2019-01-26T02:52:36.122Z,99611.68
2019-01-26T02:55:05.325Z,99610.05
2019-01-26T02:57:33.560Z,99614.03
2019-01-26T03:00:01.839Z,99616.72
2019-01-26T03:02:30.129Z,99625.44
2019-01-26T03:04:58.358Z,99619.82
2019-01-26T03:07:26.649Z,99626.87
2019-01-26T03:09:54.894Z,99634.28
2019-01-26T03:12:23.162Z,99631.75
2019-01-26T03:14:51.421Z,99624.45
2019-01-26T03:17:19.636Z,99631.57
2019-01-26T03:19:47.921Z,99633.41
2019-01-26T03:22:16.191Z,99628.70
2019-01-26T03:24:44.428Z,99630.08
2019-01-26T03:27:12.766Z,99625.38
2019-01-26T03:29:41.010Z,99624.53
2019-01-26T03:32:09.263Z,99629.82
2019-01-26T03:34:37.539Z,99624.64
2019-01-26T03:37:05.796Z,99623.78
2019-01-26T03:39:34.020Z,99617.22
2019-01-26T03:42:02.291Z,99624.30
2019-01-26T03:44:30.570Z,99618.74
2019-01-26T03:46:58.809Z,99611.36
2019-01-26T03:49:27.112Z,99604.97
2019-01-26T03:51:55.364Z,99603.29
2019-01-26T03:54:23.644Z,99598.03
2019-01-26T03:56:51.895Z,99598.10
2019-01-26T03:59:20.192Z,99592.50
2019-01-26T04:01:48.453Z,99602.09
2019-01-26T04:04:16.676Z,99601.72
2019-01-26T04:06:44.960Z,99590.89
2019-01-26T04:09:13.202Z,99598.80
2019-01-26T04:11:41.731Z,99598.80
2019-01-26T04:14:10.979Z,99605.50
2019-01-26T04:16:39.199Z,99602.52
2019-01-26T04:19:07.471Z,99588.70
2019-01-26T04:21:35.714Z,99592.55
2019-01-26T04:24:04.190Z,99596.53
2019-01-26T04:26:32.436Z,99592.27
2019-01-26T04:29:00.672Z,99590.52
2019-01-26T04:31:28.957Z,99592.85
2019-01-26T04:33:57.225Z,99596.46
2019-01-26T04:36:25.473Z,99588.63
2019-01-26T04:38:53.770Z,99590.00
2019-01-26T04:41:22.017Z,99594.05
2019-01-26T04:43:50.314Z,99588.89
2019-01-26T04:46:18.565Z,99591.16
2019-01-26T04:48:46.802Z,99589.91
2019-01-26T04:51:15.096Z,99584.24
2019-01-26T04:53:43.373Z,99582.55
2019-01-26T04:56:11.607Z,99590.84
2019-01-26T04:58:39.874Z,99587.02
2019-01-26T05:01:08.122Z,99586.16
2019-01-26T05:03:36.360Z,99587.46
2019-01-26T05:06:04.863Z,99580.99
2019-01-26T05:08:33.067Z,99581.53
2019-01-26T05:11:01.356Z,99582.11
2019-01-26T05:13:29.601Z,99582.66
2019-01-26T05:15:57.882Z,99586.25
2019-01-26T05:18:26.129Z,99584.05
2019-01-26T05:20:54.388Z,99594.99
2019-01-26T05:23:22.683Z,99589.28
2019-01-26T05:25:51.187Z,99584.53
2019-01-26T05:28:19.446Z,99589.28
2019-01-26T05:30:47.705Z,99586.22
2019-01-26T05:33:15.945Z,99590.62
2019-01-26T05:35:44.221Z,99588.45
2019-01-26T05:38:12.462Z,99592.44
2019-01-26T05:40:40.791Z,99584.98
2019-01-26T05:43:09.050Z,99592.92
2019-01-26T05:45:37.326Z,99593.77
2019-01-26T05:48:05.659Z,99591.16
2019-01-26T05:50:33.946Z,99591.61
2019-01-26T05:53:02.316Z,99587.33
2019-01-26T05:55:30.625Z,99586.05
2019-01-26T05:57:58.914Z,99580.44
2019-01-26T06:00:28.838Z,99580.50
2019-01-26T06:02:57.096Z,99566.11
2019-01-26T06:05:25.379Z,99564.42
2019-01-26T06:07:53.625Z,99564.27
2019-01-26T06:10:21.954Z,99560.73
2019-01-26T06:12:50.210Z,99559.87
2019-01-26T06:15:18.470Z,99553.77
2019-01-26T06:17:46.735Z,99547.74
2019-01-26T06:20:17.915Z,99553.90
2019-01-26T06:22:46.153Z,99538.14
2019-01-26T06:25:19.382Z,99540.82
2019-01-26T06:27:47.691Z,99534.72
2019-01-26T06:30:21.048Z,99533.03
2019-01-26T06:32:49.285Z,99537.34
2019-01-26T06:35:17.545Z,99533.03
2019-01-26T06:37:45.820Z,99521.31
2019-01-26T06:40:16.056Z,99525.24
2019-01-26T06:42:44.297Z,99524.41
2019-01-26T06:45:14.522Z,99533.59
2019-01-26T06:47:42.759Z,99533.59
2019-01-26T06:50:13.878Z,99524.88
2019-01-26T06:52:42.162Z,99523.55
2019-01-26T06:55:11.005Z,99518.31
2019-01-26T06:57:39.246Z,99517.48
2019-01-26T07:00:10.784Z,99515.64
2019-01-26T07:02:39.040Z,99512.08
2019-01-26T07:05:10.303Z,99516.45
2019-01-26T07:07:38.541Z,99519.06
2019-01-26T07:10:09.036Z,99519.12
2019-01-26T07:12:37.319Z,99513.47
2019-01-26T07:15:10.800Z,99512.16
2019-01-26T07:17:39.148Z,99516.17
2019-01-26T07:20:13.133Z,99517.88
2019-01-26T07:22:41.474Z,99527.44
2019-01-26T07:25:09.786Z,99519.17
2019-01-26T07:27:38.016Z,99506.56
2019-01-26T07:30:09.523Z,99509.72
2019-01-26T07:32:37.809Z,99505.37
2019-01-26T07:35:07.211Z,99502.38
2019-01-26T07:37:35.498Z,99496.63
2019-01-26T07:40:06.819Z,99500.95
2019-01-26T07:42:35.048Z,99498.36
2019-01-26T07:45:05.499Z,99498.45
2019-01-26T07:47:33.859Z,99499.78
2019-01-26T07:50:02.108Z,99498.11
2019-01-26T07:52:30.410Z,99493.80
2019-01-26T07:54:58.656Z,99497.33
2019-01-26T07:57:26.895Z,99491.20
2019-01-26T07:59:55.193Z,99488.64
2019-01-26T08:02:23.438Z,99479.14
2019-01-26T08:04:51.828Z,99480.56
2019-01-26T08:07:20.100Z,99474.05
2019-01-26T08:09:48.381Z,99466.19
2019-01-26T08:12:16.621Z,99459.20
2019-01-26T08:14:44.882Z,99465.39
2019-01-26T08:17:13.287Z,99459.70
2019-01-26T08:19:41.539Z,99452.78
2019-01-26T08:22:09.787Z,99457.63
2019-01-26T08:24:38.066Z,99457.23
2019-01-26T08:27:06.379Z,99446.38
2019-01-26T08:29:34.690Z,99452.91
2019-01-26T08:32:02.967Z,99441.14
2019-01-26T08:34:31.211Z,99449.47
2019-01-26T08:36:59.555Z,99445.84
2019-01-26T08:39:27.832Z,99448.86
2019-01-26T08:41:56.129Z,99443.73
2019-01-26T08:44:24.413Z,99443.73
2019-01-26T08:46:52.661Z,99440.79
2019-01-26T08:49:20.960Z,99441.78
2019-01-26T08:51:49.252Z,99440.96
2019-01-26T08:54:17.554Z,99439.75
2019-01-26T08:56:45.838Z,99430.22
2019-01-26T08:59:14.060Z,99424.94
2019-01-26T09:01:42.310Z,99431.13
2019-01-26T09:04:15.187Z,99430.20
2019-01-26T09:06:43.509Z,99431.11
2019-01-26T09:09:11.747Z,99431.94
2019-01-26T09:11:40.028Z,99426.73
2019-01-26T09:14:08.283Z,99427.36
2019-01-26T09:16:36.588Z,99430.02
2019-01-26T09:19:04.909Z,99427.66
2019-01-26T09:21:33.183Z,99418.51
2019-01-26T09:24:01.429Z,99419.48
2019-01-26T09:26:30.798Z,99410.34
2019-01-26T09:28:59.111Z,99414.37
2019-01-26T09:31:27.350Z,99414.86
2019-01-26T09:33:55.987Z,99418.81
2019-01-26T09:36:24.253Z,99410.60
2019-01-26T09:38:52.562Z,99406.69
2019-01-26T09:41:20.806Z,99405.88
2019-01-26T09:43:49.109Z,99413.38
2019-01-26T09:46:17.728Z,99407.84
2019-01-26T09:48:46.419Z,99406.55
2019-01-26T09:51:14.765Z,99402.53
2019-01-26T09:53:43.221Z,99412.58
2019-01-26T09:56:11.477Z,99413.92
2019-01-26T09:58:39.760Z,99402.62
2019-01-26T10:01:07.999Z,99404.81
2019-01-26T10:03:36.278Z,99402.73
2019-01-26T10:06:04.603Z,99398.52
2019-01-26T10:08:32.847Z,99395.05
2019-01-26T10:11:01.398Z,99397.38
2019-01-26T10:13:29.639Z,99390.05
2019-01-26T10:15:57.990Z,99402.34
2019-01-26T10:18:26.258Z,99396.81
2019-01-26T10:20:54.575Z,99394.70
2019-01-26T10:23:22.918Z,99397.38
2019-01-26T10:25:51.167Z,99401.41
2019-01-26T10:28:19.416Z,99394.47
2019-01-26T10:30:49.350Z,99395.87
2019-01-26T10:33:17.660Z,99396.84
2019-01-26T10:35:47.561Z,99395.55
2019-01-26T10:38:15.798Z,99396.48
2019-01-26T10:40:45.710Z,99394.33
2019-01-26T10:43:15.630Z,99398.31
2019-01-26T10:45:43.926Z,99394.44
2019-01-26T10:48:12.210Z,99389.25
2019-01-26T10:50:40.452Z,99384.02
2019-01-26T10:53:08.752Z,99385.35
2019-01-26T10:55:37.111Z,99386.19
2019-01-26T10:58:05.421Z,99388.88
2019-01-26T11:00:33.692Z,99384.02
2019-01-26T11:03:01.925Z,99386.24
2019-01-26T11:05:30.213Z,99382.80
2019-01-26T11:07:58.776Z,99384.59
2019-01-26T11:10:27.004Z,99383.72
2019-01-26T11:12:55.306Z,99386.35
2019-01-26T11:15:23.595Z,99385.94
2019-01-26T11:17:51.906Z,99384.63
2019-01-26T11:20:20.262Z,99387.30
2019-01-26T11:22:48.514Z,99386.84
2019-01-26T11:25:16.746Z,99382.55
2019-01-26T11:27:45.032Z,99382.48
2019-01-26T11:30:18.162Z,99386.88
2019-01-26T11:32:46.456Z,99371.56
2019-01-26T11:35:22.465Z,99369.00
2019-01-26T11:37:50.780Z,99364.62
2019-01-26T11:40:23.435Z,99365.06
2019-01-26T11:42:52.315Z,99364.23
2019-01-26T11:45:24.976Z,99367.27
2019-01-26T11:47:53.949Z,99366.84
2019-01-26T11:50:23.857Z,99366.39
2019-01-26T11:52:52.094Z,99369.91
2019-01-26T11:55:26.550Z,99365.53
2019-01-26T11:57:55.056Z,99365.97
2019-01-26T12:00:27.669Z,99368.16
2019-01-26T12:02:57.518Z,99365.53
2019-01-26T12:05:30.402Z,99359.79
2019-01-26T12:07:59.296Z,99359.39
2019-01-26T12:10:27.584Z,99362.90
2019-01-26T12:12:55.875Z,99350.19
2019-01-26T12:15:24.117Z,99358.55
2019-01-26T12:17:52.357Z,99353.25
2019-01-26T12:20:20.632Z,99360.28
2019-01-26T12:22:48.885Z,99366.02
2019-01-26T12:25:17.274Z,99355.92
2019-01-26T12:27:45.549Z,99367.34
2019-01-26T12:30:15.303Z,99360.36
2019-01-26T12:32:43.539Z,99356.47
2019-01-26T12:35:13.862Z,99354.69
2019-01-26T12:37:42.099Z,99362.16
2019-01-26T12:40:12.625Z,99355.64
2019-01-26T12:42:40.933Z,99356.54
2019-01-26T12:45:18.350Z,99359.22
2019-01-26T12:47:46.586Z,99359.70
2019-01-26T12:50:14.876Z,99356.64
2019-01-26T12:52:43.121Z,99351.33
2019-01-26T12:55:16.495Z,99357.91
2019-01-26T12:57:45.729Z,99357.44
2019-01-26T13:00:22.800Z,99354.81
2019-01-26T13:02:51.045Z,99357.48
2019-01-26T13:05:19.280Z,99353.97
2019-01-26T13:07:47.700Z,99349.60
2019-01-26T13:10:19.419Z,99355.34
2019-01-26T13:12:47.650Z,99352.23
2019-01-26T13:15:15.888Z,99344.34
2019-01-26T13:17:44.452Z,99344.70
2019-01-26T13:20:16.672Z,99344.70
2019-01-26T13:22:44.915Z,99342.97
2019-01-26T13:25:15.848Z,99342.06
2019-01-26T13:27:44.103Z,99343.80
2019-01-26T13:30:14.978Z,99346.86
2019-01-26T13:32:43.289Z,99348.17
2019-01-26T13:35:11.568Z,99347.28
2019-01-26T13:37:39.818Z,99349.95
2019-01-26T13:40:11.823Z,99348.22
2019-01-26T13:42:40.112Z,99347.33
2019-01-26T13:45:11.549Z,99346.48
2019-01-26T13:47:39.944Z,99347.34
2019-01-26T13:50:09.375Z,99355.64
2019-01-26T13:52:37.608Z,99347.33
2019-01-26T13:55:12.037Z,99345.17
2019-01-26T13:57:40.320Z,99339.92
2019-01-26T14:00:26.612Z,99348.28
2019-01-26T14:02:54.971Z,99341.29
2019-01-26T14:05:23.509Z,99335.60
2019-01-26T14:07:51.792Z,99332.98
2019-01-26T14:10:22.413Z,99332.98
2019-01-26T14:12:50.649Z,99336.50
2019-01-26T14:15:20.162Z,99332.08
2019-01-26T14:17:48.408Z,99337.30
2019-01-26T14:20:19.605Z,99327.23
2019-01-26T14:22:47.957Z,99335.08
2019-01-26T14:25:17.280Z,99326.77
2019-01-26T14:27:45.628Z,99325.83
2019-01-26T14:30:19.642Z,99329.76
2019-01-26T14:32:52.458Z,99330.17
2019-01-26T14:35:18.504Z,99331.91
2019-01-26T14:37:46.746Z,99332.33
2019-01-26T14:40:16.736Z,99333.64
2019-01-26T14:42:44.976Z,99335.30
2019-01-26T14:45:16.065Z,99329.63
2019-01-26T14:47:44.331Z,99330.06
2019-01-26T14:50:14.646Z,99330.05
2019-01-26T14:52:42.885Z,99331.37
2019-01-26T14:55:14.380Z,99326.53
2019-01-26T14:57:42.617Z,99326.05
2019-01-26T15:00:25.784Z,99326.05
2019-01-26T15:02:58.658Z,99334.77
2019-01-26T15:05:27.129Z,99328.61
2019-01-26T15:07:55.373Z,99333.38
2019-01-26T15:10:23.602Z,99333.30
2019-01-26T15:12:51.877Z,99330.23
2019-01-26T15:15:21.005Z,99340.69
2019-01-26T15:17:49.253Z,99339.36
2019-01-26T15:20:22.518Z,99332.78
2019-01-26T15:22:50.795Z,99334.53
2019-01-26T15:25:19.101Z,99325.33
2019-01-26T15:27:47.341Z,99334.92
2019-01-26T15:30:21.587Z,99329.63
2019-01-26T15:32:49.839Z,99327.87
2019-01-26T15:35:18.109Z,99323.87
2019-01-26T15:37:46.403Z,99319.91
2019-01-26T15:40:14.698Z,99321.20
2019-01-26T15:42:42.941Z,99320.31
2019-01-26T15:45:32.751Z,99325.57
2019-01-26T15:48:00.997Z,99323.83
2019-01-26T15:50:29.291Z,99322.47
2019-01-26T15:52:57.544Z,99323.78
2019-01-26T15:55:26.537Z,99322.03
2019-01-26T15:57:54.915Z,99325.09
2019-01-26T16:00:29.344Z,99322.03
2019-01-26T16:02:57.839Z,99323.78
2019-01-26T16:05:26.079Z,99324.66
2019-01-26T16:07:54.356Z,99320.73
2019-01-26T16:10:24.064Z,99323.78
2019-01-26T16:12:52.358Z,99313.74
2019-01-26T16:15:28.626Z,99320.26
2019-01-26T16:17:56.882Z,99319.39
2019-01-26T16:20:25.131Z,99311.92
2019-01-26T16:22:53.466Z,99308.41
2019-01-26T16:25:21.757Z,99308.42
2019-01-26T16:27:50.006Z,99301.42
2019-01-26T16:30:30.213Z,99301.42
2019-01-26T16:32:58.538Z,99302.27
2019-01-26T16:35:26.827Z,99296.59
2019-01-26T16:37:55.107Z,99299.20
2019-01-26T16:40:26.253Z,99296.53
2019-01-26T16:42:54.673Z,99299.16
2019-01-26T16:45:25.424Z,99297.03
2019-01-26T16:47:53.719Z,99297.03
2019-01-26T16:50:27.830Z,99292.65
2019-01-26T16:52:53.991Z,99292.23
2019-01-26T16:55:22.574Z,99288.73
2019-01-26T16:57:50.816Z,99291.36
2019-01-26T17:00:43.826Z,99286.98
2019-01-26T17:03:12.210Z,99283.48
2019-01-26T17:05:40.477Z,99283.48
2019-01-26T17:08:09.663Z,99281.33
2019-01-26T17:10:38.292Z,99283.06
2019-01-26T17:13:06.602Z,99283.95
2019-01-26T17:15:34.819Z,99283.90
2019-01-26T17:18:03.104Z,99284.37
2019-01-26T17:20:40.037Z,99281.32
2019-01-26T17:23:08.327Z,99277.34
2019-01-26T17:25:37.006Z,99267.30
2019-01-26T17:28:05.416Z,99271.67
2019-01-26T17:30:36.247Z,99277.81
2019-01-26T17:33:07.553Z,99265.09
2019-01-26T17:35:34.799Z,99261.14
2019-01-26T17:38:04.090Z,99267.70
2019-01-26T17:40:32.399Z,99268.55
2019-01-26T17:43:00.644Z,99255.43
2019-01-26T17:45:28.868Z,99265.08
2019-01-26T17:47:57.276Z,99262.47
2019-01-26T17:50:27.185Z,99256.33
2019-01-26T17:52:55.471Z,99252.88
2019-01-26T17:55:23.716Z,99252.88
2019-01-26T17:57:52.150Z,99247.63
2019-01-26T18:00:29.586Z,99243.69
2019-01-26T18:02:57.865Z,99236.23
2019-01-26T18:05:26.106Z,99238.86
2019-01-26T18:07:54.415Z,99225.30
2019-01-26T18:10:28.906Z,99223.99
2019-01-26T18:12:57.520Z,99229.23
2019-01-26T18:15:25.809Z,99230.13
2019-01-26T18:17:54.100Z,99226.20
2019-01-26T18:20:29.792Z,99222.69
2019-01-26T18:22:59.245Z,99216.13
2019-01-26T18:25:29.187Z,99211.75
2019-01-26T18:27:57.489Z,99215.27
2019-01-26T18:30:28.076Z,99207.41
2019-01-26T18:32:56.322Z,99207.83
2019-01-26T18:35:24.611Z,99210.50
2019-01-26T18:37:52.868Z,99204.37
2019-01-26T18:40:23.306Z,99202.17
2019-01-26T18:42:51.592Z,99192.56
2019-01-26T18:45:22.078Z,99196.96
2019-01-26T18:47:50.365Z,99197.85
2019-01-26T18:50:21.373Z,99191.71
2019-01-26T18:52:49.710Z,99184.25
2019-01-26T18:55:17.953Z,99180.31
2019-01-26T18:57:46.323Z,99170.65
2019-01-26T19:00:23.134Z,99165.41
2019-01-26T19:03:18.893Z,99162.77
2019-01-26T19:05:47.682Z,99164.98
2019-01-26T19:08:15.960Z,99166.30
2019-01-26T19:10:44.258Z,99154.95
2019-01-26T19:13:12.612Z,99151.02
2019-01-26T19:15:40.852Z,99155.37
2019-01-26T19:18:09.149Z,99154.95
2019-01-26T19:20:37.465Z,99147.91
2019-01-26T19:23:06.029Z,99146.61
2019-01-26T19:25:34.327Z,99143.55
2019-01-26T19:28:02.608Z,99143.55
2019-01-26T19:30:30.858Z,99140.92
2019-01-26T19:32:59.178Z,99147.91
2019-01-26T19:35:27.431Z,99129.53
2019-01-26T19:37:55.804Z,99131.73
2019-01-26T19:40:24.735Z,99130.84
2019-01-26T19:42:53.089Z,99129.95
2019-01-26T19:45:22.374Z,99132.99
2019-01-26T19:47:51.582Z,99123.80
2019-01-26T19:50:22.082Z,99116.33
2019-01-26T19:52:50.361Z,99103.63
2019-01-26T19:55:21.255Z,99099.21
2019-01-26T19:57:49.607Z,99106.59
2019-01-26T20:00:17.925Z,99101.23
2019-01-26T20:02:46.231Z,99102.47
2019-01-26T20:05:18.616Z,99094.50
2019-01-26T20:07:47.144Z,99094.48
2019-01-26T20:10:16.041Z,99097.59
2019-01-26T20:12:44.282Z,99089.78
2019-01-26T20:15:15.126Z,99084.58
2019-01-26T20:17:44.376Z,99086.32
2019-01-26T20:20:15.793Z,99079.34
2019-01-26T20:22:44.076Z,99078.08
2019-01-26T20:25:12.367Z,99076.31
2019-01-26T20:27:40.707Z,99080.72
2019-01-26T20:30:12.413Z,99078.98
2019-01-26T20:32:40.816Z,99068.08
2019-01-26T20:35:09.100Z,99067.18
2019-01-26T20:37:37.399Z,99039.56
2019-01-26T20:40:12.549Z,99039.56
2019-01-26T20:42:40.830Z,99058.41
2019-01-26T20:45:12.469Z,99050.55
2019-01-26T20:47:40.722Z,99047.48
2019-01-26T20:50:11.841Z,99048.80
2019-01-26T20:52:40.125Z,99036.09
2019-01-26T20:55:10.675Z,99035.63
2019-01-26T20:57:39.255Z,99037.83
2019-01-26T21:00:10.763Z,99033.00
2019-01-26T21:02:43.541Z,99028.64
2019-01-26T21:05:11.835Z,99019.88
2019-01-26T21:07:40.134Z,99018.52
2019-01-26T21:10:14.382Z,99018.98
2019-01-26T21:12:42.670Z,99011.11
2019-01-26T21:15:10.965Z,99011.06
2019-01-26T21:17:39.215Z,99008.91
2019-01-26T21:20:18.986Z,99004.51
2019-01-26T21:22:47.237Z,99002.34
2019-01-26T21:25:15.657Z,99000.56
2019-01-26T21:27:43.891Z,98996.59
2019-01-26T21:30:15.365Z,98981.27
2019-01-26T21:32:43.611Z,98985.20
2019-01-26T21:35:11.899Z,98976.02
2019-01-26T21:37:40.135Z,98967.25
2019-01-26T21:40:11.686Z,98961.91
2019-01-26T21:42:40.026Z,98966.19
2019-01-26T21:45:10.790Z,98965.29
2019-01-26T21:47:39.052Z,98955.70
2019-01-26T21:50:16.278Z,98954.44
2019-01-26T21:52:44.527Z,98955.28
2019-01-26T21:55:12.770Z,98947.00
2019-01-26T21:57:41.087Z,98946.58
2019-01-26T22:00:15.211Z,98936.09
2019-01-26T22:02:43.498Z,98930.85
2019-01-26T22:05:12.755Z,98930.00
2019-01-26T22:07:40.985Z,98924.33
2019-01-26T22:10:14.715Z,98915.16
2019-01-26T22:12:43.003Z,98921.67
2019-01-26T22:15:13.862Z,98910.34
2019-01-26T22:17:42.236Z,98911.19
2019-01-26T22:20:13.545Z,98906.83
2019-01-26T22:22:41.803Z,98901.99
2019-01-26T22:25:12.324Z,98906.77
2019-01-26T22:27:40.566Z,98905.03
2019-01-26T22:30:17.956Z,98901.95
2019-01-26T22:32:46.271Z,98899.38
2019-01-26T22:35:14.592Z,98887.62
2019-01-26T22:37:42.934Z,98884.11
2019-01-26T22:40:17.472Z,98887.16
2019-01-26T22:42:45.701Z,98878.87
2019-01-26T22:45:13.991Z,98879.77
2019-01-26T22:47:42.249Z,98881.54
2019-01-26T22:50:15.959Z,98879.38
2019-01-26T22:52:44.259Z,98878.50
2019-01-26T22:55:14.865Z,98867.58
2019-01-26T22:57:43.154Z,98871.16
2019-01-26T23:00:56.159Z,98868.97
2019-01-26T23:03:48.878Z,98855.00
2019-01-26T23:06:32.615Z,98853.69
2019-01-26T23:09:13.464Z,98860.67
2019-01-26T23:12:00.171Z,98856.77
2019-01-26T23:14:47.166Z,98848.02
2019-01-26T23:17:33.703Z,98839.68
2019-01-26T23:20:08.210Z,98828.30
2019-01-26T23:22:54.931Z,98825.22
2019-01-26T23:25:44.653Z,98815.19
2019-01-26T23:28:18.656Z,98811.25
2019-01-26T23:31:13.974Z,98800.69
2019-01-26T23:33:42.693Z,98797.61
2019-01-26T23:36:10.970Z,98791.94
2019-01-26T23:38:39.257Z,98782.33
2019-01-26T23:41:07.560Z,98777.97
2019-01-26T23:43:35.964Z,98774.00
2019-01-26T23:46:04.565Z,98772.27
2019-01-26T23:48:32.918Z,98763.52
2019-01-26T23:51:01.208Z,98756.07
2019-01-26T23:53:29.526Z,98762.62
2019-01-26T23:55:57.847Z,98757.84
2019-01-26T23:58:26.102Z,98757.84
